createdAt,value
2023-12-08T00:00:27.001Z,1.57
2023-12-08T00:02:54.655Z,1.63
2023-12-08T00:05:21.619Z,1.63
2023-12-08T00:07:48.842Z,1.61
2023-12-08T00:10:16.881Z,1.66
2023-12-08T00:12:44.126Z,1.69
2023-12-08T00:15:14.281Z,1.69
2023-12-08T00:17:41.391Z,1.72
2023-12-08T00:20:09.421Z,1.75
2023-12-08T00:22:36.813Z,1.73
2023-12-08T00:25:04.211Z,1.76
2023-12-08T00:27:31.444Z,1.79
2023-12-08T00:29:58.899Z,1.79
2023-12-08T00:32:26.087Z,1.68
2023-12-08T00:34:55.270Z,1.73
2023-12-08T00:37:22.621Z,1.72
2023-12-08T00:39:50.108Z,1.67
2023-12-08T00:42:17.616Z,1.62
2023-12-08T00:44:45.674Z,1.62
2023-12-08T00:47:13.427Z,1.52
2023-12-08T00:49:40.872Z,1.54
2023-12-08T00:52:08.147Z,1.51
2023-12-08T00:54:35.323Z,1.49
2023-12-08T00:57:03.143Z,1.49
2023-12-08T00:59:32.008Z,1.54
2023-12-08T01:01:59.376Z,1.49
2023-12-08T01:04:26.523Z,1.48
2023-12-08T01:06:53.656Z,1.53
2023-12-08T01:09:20.768Z,1.55
2023-12-08T01:11:48.008Z,1.48
2023-12-08T01:14:15.382Z,1.49
2023-12-08T01:16:43.459Z,1.51
2023-12-08T01:19:17.233Z,1.59
2023-12-08T01:21:50.462Z,1.63
2023-12-08T01:24:17.626Z,1.60
2023-12-08T01:26:47.939Z,1.65
2023-12-08T01:29:16.940Z,1.71
2023-12-08T01:31:44.211Z,1.77
2023-12-08T01:34:11.808Z,1.78
2023-12-08T01:36:44.181Z,1.82
2023-12-08T01:39:12.763Z,1.87
2023-12-08T01:41:40.495Z,1.87
2023-12-08T01:44:10.076Z,1.83
2023-12-08T01:46:38.709Z,1.89
2023-12-08T01:49:07.242Z,1.95
2023-12-08T01:51:38.265Z,1.96
2023-12-08T01:54:07.715Z,1.98
2023-12-08T01:56:38.296Z,1.99
2023-12-08T01:59:06.165Z,2.00
2023-12-08T02:01:33.248Z,1.99
2023-12-08T02:04:00.796Z,2.03
2023-12-08T02:06:28.579Z,2.02
2023-12-08T02:08:55.741Z,2.02
2023-12-08T02:11:23.021Z,2.00
2023-12-08T02:13:51.201Z,2.07
2023-12-08T02:16:22.688Z,2.02
2023-12-08T02:18:50.472Z,1.99
2023-12-08T02:21:18.116Z,1.95
2023-12-08T02:23:49.130Z,1.95
2023-12-08T02:26:17.874Z,1.92
2023-12-08T02:28:45.954Z,1.95
2023-12-08T02:31:20.742Z,1.95
2023-12-08T02:33:52.887Z,1.93
2023-12-08T02:36:23.224Z,1.97
2023-12-08T02:38:53.816Z,1.84
2023-12-08T02:41:21.582Z,1.83
2023-12-08T02:43:58.775Z,1.80
2023-12-08T02:46:25.892Z,1.84
2023-12-08T02:48:54.959Z,1.89
2023-12-08T02:51:22.969Z,1.89
2023-12-08T02:53:50.237Z,1.88
2023-12-08T02:56:17.343Z,1.89
2023-12-08T02:58:44.504Z,1.87
2023-12-08T03:01:12.080Z,1.88
2023-12-08T03:03:39.274Z,1.90
2023-12-08T03:06:06.946Z,1.86
2023-12-08T03:08:34.809Z,1.87
2023-12-08T03:11:02.038Z,1.85
2023-12-08T03:13:29.700Z,1.84
2023-12-08T03:15:58.893Z,1.85
2023-12-08T03:18:26.435Z,1.89
2023-12-08T03:20:54.552Z,1.88
2023-12-08T03:23:21.891Z,1.90
2023-12-08T03:25:49.204Z,1.89
2023-12-08T03:28:16.585Z,1.95
2023-12-08T03:30:44.124Z,1.96
2023-12-08T03:33:11.496Z,1.99
2023-12-08T03:35:39.386Z,1.98
2023-12-08T03:38:06.543Z,1.92
2023-12-08T03:40:34.203Z,1.87
2023-12-08T03:43:01.469Z,1.91
2023-12-08T03:45:29.039Z,1.83
2023-12-08T03:47:57.865Z,1.81
2023-12-08T03:50:25.114Z,1.75
2023-12-08T03:52:55.574Z,1.79
2023-12-08T03:55:23.572Z,1.82
2023-12-08T03:57:50.415Z,1.87
2023-12-08T04:00:18.590Z,1.84
2023-12-08T04:02:48.683Z,1.84
2023-12-08T04:05:16.022Z,1.88
2023-12-08T04:07:43.768Z,1.93
2023-12-08T04:10:11.122Z,1.99
2023-12-08T04:12:38.436Z,1.98
2023-12-08T04:15:06.254Z,2.01
2023-12-08T04:17:33.639Z,1.97
2023-12-08T04:20:00.911Z,2.04
2023-12-08T04:22:28.391Z,2.00
2023-12-08T04:24:56.286Z,2.02
2023-12-08T04:27:23.933Z,2.02
2023-12-08T04:29:52.310Z,1.96
2023-12-08T04:32:19.388Z,1.89
2023-12-08T04:34:52.276Z,1.87
2023-12-08T04:37:24.081Z,1.81
2023-12-08T04:39:51.651Z,1.88
2023-12-08T04:42:21.420Z,1.89
2023-12-08T04:44:49.108Z,1.95
2023-12-08T04:47:16.410Z,1.94
2023-12-08T04:49:43.763Z,1.96
2023-12-08T04:52:11.392Z,2.03
2023-12-08T04:54:38.709Z,2.03
2023-12-08T04:57:07.635Z,2.07
2023-12-08T04:59:35.314Z,2.08
2023-12-08T05:02:02.586Z,2.04
2023-12-08T05:04:29.786Z,2.03
2023-12-08T05:06:56.912Z,2.00
2023-12-08T05:09:24.195Z,2.03
2023-12-08T05:11:51.889Z,2.06
2023-12-08T05:14:22.416Z,2.05
2023-12-08T05:16:49.732Z,2.02
2023-12-08T05:19:23.120Z,2.07
2023-12-08T05:21:50.374Z,2.01
2023-12-08T05:24:17.524Z,2.02
2023-12-08T05:26:45.592Z,2.02
2023-12-08T05:29:12.645Z,1.99
2023-12-08T05:31:42.368Z,2.00
2023-12-08T05:34:09.457Z,1.98
2023-12-08T05:36:36.475Z,2.03
2023-12-08T05:39:04.546Z,2.03
2023-12-08T05:41:31.171Z,2.05
2023-12-08T05:43:58.500Z,2.03
2023-12-08T05:46:25.726Z,2.09
2023-12-08T05:48:53.334Z,2.09
2023-12-08T05:51:20.653Z,2.09
2023-12-08T05:53:50.803Z,2.13
2023-12-08T05:56:18.220Z,2.15
2023-12-08T05:58:48.129Z,2.15
2023-12-08T06:01:15.972Z,2.14
2023-12-08T06:03:43.042Z,2.13
2023-12-08T06:06:10.952Z,2.09
2023-12-08T06:08:37.960Z,2.12
2023-12-08T06:11:07.957Z,2.01
2023-12-08T06:13:36.437Z,2.02
2023-12-08T06:16:05.264Z,2.09
2023-12-08T06:18:32.432Z,2.05
2023-12-08T06:20:59.879Z,2.10
2023-12-08T06:23:27.261Z,2.09
2023-12-08T06:25:54.102Z,2.13
2023-12-08T06:28:21.468Z,2.10
2023-12-08T06:30:48.641Z,2.18
2023-12-08T06:33:18.952Z,2.13
2023-12-08T06:35:46.379Z,2.14
2023-12-08T06:38:13.402Z,2.16
2023-12-08T06:40:42.530Z,2.22
2023-12-08T06:43:09.330Z,2.25
2023-12-08T06:45:36.221Z,2.25
2023-12-08T06:48:14.073Z,2.30
2023-12-08T06:50:41.008Z,2.29
2023-12-08T06:53:08.535Z,2.31
2023-12-08T06:55:35.494Z,2.29
2023-12-08T06:58:02.914Z,2.31
2023-12-08T07:00:30.247Z,2.35
2023-12-08T07:02:57.346Z,2.42
2023-12-08T07:05:24.814Z,2.41
2023-12-08T07:07:57.669Z,2.45
2023-12-08T07:10:24.909Z,2.45
2023-12-08T07:12:51.721Z,2.47
2023-12-08T07:15:18.703Z,2.53
2023-12-08T07:17:45.752Z,2.52
2023-12-08T07:20:16.032Z,2.57
2023-12-08T07:22:43.103Z,2.57
2023-12-08T07:25:12.836Z,2.58
2023-12-08T07:27:39.725Z,2.60
2023-12-08T07:30:07.411Z,2.63
2023-12-08T07:32:34.460Z,2.66
2023-12-08T07:35:01.244Z,2.63
2023-12-08T07:37:28.861Z,2.74
2023-12-08T07:39:58.850Z,2.73
2023-12-08T07:42:25.877Z,2.66
2023-12-08T07:44:54.487Z,2.70
2023-12-08T07:47:21.860Z,2.63
2023-12-08T07:49:48.767Z,2.47
2023-12-08T07:52:16.812Z,2.52
2023-12-08T07:54:43.664Z,2.48
2023-12-08T07:57:10.592Z,2.39
2023-12-08T07:59:40.516Z,2.38
2023-12-08T08:02:07.329Z,2.32
2023-12-08T08:04:34.248Z,2.37
2023-12-08T08:07:04.636Z,2.40
2023-12-08T08:09:31.731Z,2.41
2023-12-08T08:11:58.561Z,2.39
2023-12-08T08:14:25.469Z,2.42
2023-12-08T08:16:52.558Z,2.40
2023-12-08T08:19:20.201Z,2.49
2023-12-08T08:22:26.782Z,2.36
2023-12-08T08:24:34.032Z,2.36
2023-12-08T08:27:02.239Z,2.40
2023-12-08T08:29:29.363Z,2.34
2023-12-08T08:31:56.219Z,2.34
2023-12-08T08:34:23.172Z,2.34
2023-12-08T08:36:50.176Z,2.36
2023-12-08T08:39:17.412Z,2.40
2023-12-08T08:41:49.493Z,2.48
2023-12-08T08:44:16.450Z,2.50
2023-12-08T08:46:45.545Z,2.51
2023-12-08T08:49:12.641Z,2.46
2023-12-08T08:51:43.614Z,2.44
2023-12-08T08:54:10.728Z,2.45
2023-12-08T08:56:44.891Z,2.42
2023-12-08T08:59:11.811Z,2.45
2023-12-08T09:01:39.807Z,2.46
2023-12-08T09:04:06.564Z,2.52
2023-12-08T09:06:33.641Z,2.46
2023-12-08T09:09:02.052Z,2.46
2023-12-08T09:11:28.859Z,2.51
2023-12-08T09:13:56.068Z,2.54
2023-12-08T09:16:23.145Z,2.62
2023-12-08T09:18:50.119Z,2.69
2023-12-08T09:21:23.009Z,2.72
2023-12-08T09:23:50.053Z,2.71
2023-12-08T09:26:17.263Z,2.72
2023-12-08T09:28:44.213Z,2.81
2023-12-08T09:31:12.396Z,2.83
2023-12-08T09:33:40.893Z,2.85
2023-12-08T09:36:08.511Z,2.79
2023-12-08T09:38:36.220Z,2.80
2023-12-08T09:41:06.632Z,2.82
2023-12-08T09:43:58.770Z,2.87
2023-12-08T09:46:26.761Z,2.86
2023-12-08T09:48:57.056Z,2.95
2023-12-08T09:51:24.169Z,2.91
2023-12-08T09:53:51.828Z,2.89
2023-12-08T09:56:20.680Z,2.93
2023-12-08T09:58:48.833Z,2.96
2023-12-08T10:01:18.551Z,2.97
2023-12-08T10:03:45.990Z,2.99
2023-12-08T10:06:14.692Z,3.05
2023-12-08T10:08:42.036Z,3.12
2023-12-08T10:11:08.753Z,3.20
2023-12-08T10:13:36.153Z,3.20
2023-12-08T10:16:03.105Z,3.18
2023-12-08T10:18:31.268Z,3.22
2023-12-08T10:21:20.771Z,3.21
2023-12-08T10:23:48.548Z,3.21
2023-12-08T10:26:17.910Z,3.31
2023-12-08T10:28:44.740Z,3.30
2023-12-08T10:31:14.942Z,3.36
2023-12-08T10:33:49.930Z,3.36
2023-12-08T10:36:18.170Z,3.37
2023-12-08T10:38:46.062Z,3.36
2023-12-08T10:41:13.229Z,3.35
2023-12-08T10:43:41.056Z,3.38
2023-12-08T10:46:09.843Z,3.38
2023-12-08T10:48:39.289Z,3.40
2023-12-08T10:51:08.286Z,3.44
2023-12-08T10:53:36.148Z,3.41
2023-12-08T10:56:11.666Z,3.43
2023-12-08T10:58:45.247Z,3.43
2023-12-08T11:01:16.113Z,3.46
2023-12-08T11:03:53.925Z,3.45
2023-12-08T11:06:36.318Z,3.48
2023-12-08T11:09:10.846Z,3.46
2023-12-08T11:11:44.244Z,3.48
2023-12-08T11:14:28.994Z,3.53
2023-12-08T11:17:05.704Z,3.56
2023-12-08T11:19:34.589Z,3.56
2023-12-08T11:22:01.700Z,3.49
2023-12-08T11:24:30.482Z,3.51
2023-12-08T11:27:40.996Z,3.60
2023-12-08T11:30:26.760Z,3.49
2023-12-08T11:33:15.258Z,3.47
2023-12-08T11:35:42.888Z,3.44
2023-12-08T11:38:09.916Z,3.54
2023-12-08T11:40:52.728Z,3.49
2023-12-08T11:43:19.858Z,3.45
2023-12-08T11:45:49.009Z,3.52
2023-12-08T11:48:18.288Z,3.57
2023-12-08T11:50:46.692Z,3.50
2023-12-08T11:53:14.462Z,3.53
2023-12-08T11:55:41.530Z,3.48
2023-12-08T11:58:12.612Z,3.53
2023-12-08T12:00:41.065Z,3.51
2023-12-08T12:03:09.816Z,3.51
2023-12-08T12:05:37.682Z,3.50
2023-12-08T12:08:10.903Z,3.52
2023-12-08T12:10:41.630Z,3.45
2023-12-08T12:13:15.332Z,3.46
2023-12-08T12:15:43.562Z,3.43
2023-12-08T12:18:12.906Z,3.45
2023-12-08T12:20:40.507Z,3.45
2023-12-08T12:23:08.070Z,3.47
2023-12-08T12:25:35.119Z,3.47
2023-12-08T12:28:02.203Z,3.42
2023-12-08T12:30:29.285Z,3.42
2023-12-08T12:33:01.324Z,3.49
2023-12-08T12:35:28.333Z,3.48
2023-12-08T12:37:59.007Z,3.54
2023-12-08T12:40:26.307Z,3.50
2023-12-08T12:42:56.482Z,3.46
2023-12-08T12:45:34.914Z,3.54
2023-12-08T12:48:07.587Z,3.45
2023-12-08T12:50:53.497Z,3.40
2023-12-08T12:53:20.464Z,3.34
2023-12-08T12:55:50.074Z,3.32
2023-12-08T12:58:20.816Z,3.35
2023-12-08T13:00:48.199Z,3.31
2023-12-08T13:03:21.446Z,3.27
2023-12-08T13:05:54.106Z,3.26
2023-12-08T13:08:22.027Z,3.22
2023-12-08T13:10:50.286Z,3.14
2023-12-08T13:13:23.248Z,3.09
2023-12-08T13:15:53.335Z,3.01
2023-12-08T13:18:20.889Z,3.02
2023-12-08T13:20:48.051Z,2.98
2023-12-08T13:23:15.071Z,2.95
2023-12-08T13:25:41.952Z,2.98
2023-12-08T13:28:09.194Z,2.97
2023-12-08T13:30:36.946Z,2.94
2023-12-08T13:33:07.056Z,2.86
2023-12-08T13:35:37.950Z,2.84
2023-12-08T13:38:05.025Z,2.83
2023-12-08T13:40:32.004Z,2.80
2023-12-08T13:42:59.135Z,2.77
2023-12-08T13:45:29.098Z,2.72
2023-12-08T13:47:56.346Z,2.74
2023-12-08T13:50:23.880Z,2.73
2023-12-08T13:52:53.641Z,2.77
2023-12-08T13:55:20.686Z,2.78
2023-12-08T13:57:47.636Z,2.89
2023-12-08T14:00:15.422Z,2.85
2023-12-08T14:02:43.420Z,2.89
2023-12-08T14:05:13.193Z,2.97
2023-12-08T14:07:40.734Z,2.91
2023-12-08T14:10:09.882Z,2.90
2023-12-08T14:12:37.453Z,2.89
2023-12-08T14:15:06.397Z,2.85
2023-12-08T14:17:33.976Z,2.89
2023-12-08T14:20:01.298Z,2.91
2023-12-08T14:22:30.628Z,2.88
2023-12-08T14:25:12.886Z,2.83
2023-12-08T14:27:42.893Z,2.83
2023-12-08T14:30:12.295Z,2.79
2023-12-08T14:32:40.645Z,2.73
2023-12-08T14:35:18.855Z,2.76
2023-12-08T14:37:53.412Z,2.69
2023-12-08T14:40:21.008Z,2.70
2023-12-08T14:42:48.059Z,2.67
2023-12-08T14:45:15.238Z,2.69
2023-12-08T14:47:42.273Z,2.70
2023-12-08T14:50:13.524Z,2.71
2023-12-08T14:52:41.622Z,2.68
2023-12-08T14:55:16.033Z,2.66
2023-12-08T14:57:44.608Z,2.61
2023-12-08T15:00:12.961Z,2.65
2023-12-08T15:02:41.405Z,2.69
2023-12-08T15:05:10.837Z,2.66
2023-12-08T15:07:39.103Z,2.57
2023-12-08T15:10:09.102Z,2.60
2023-12-08T15:12:37.189Z,2.71
2023-12-08T15:15:07.506Z,2.62
2023-12-08T15:17:36.550Z,2.52
2023-12-08T15:20:09.385Z,2.54
2023-12-08T15:22:41.401Z,2.55
2023-12-08T15:25:08.951Z,2.57
2023-12-08T15:27:38.670Z,2.52
2023-12-08T15:30:06.849Z,2.56
2023-12-08T15:32:33.835Z,2.56
2023-12-08T15:35:04.438Z,2.58
2023-12-08T15:37:31.639Z,2.64
2023-12-08T15:39:58.630Z,2.62
2023-12-08T15:42:25.939Z,2.61
2023-12-08T15:44:53.283Z,2.59
2023-12-08T15:47:20.643Z,2.65
2023-12-08T15:49:48.987Z,2.68
2023-12-08T15:52:19.210Z,2.71
2023-12-08T15:54:48.507Z,2.73
2023-12-08T15:57:16.131Z,2.66
2023-12-08T15:59:43.281Z,2.62
2023-12-08T16:02:12.635Z,2.53
2023-12-08T16:04:44.898Z,2.52
2023-12-08T16:07:11.844Z,2.52
2023-12-08T16:09:43.202Z,2.56
2023-12-08T16:12:10.512Z,2.60
2023-12-08T16:14:42.691Z,2.63
2023-12-08T16:17:10.806Z,2.64
2023-12-08T16:19:37.881Z,2.65
2023-12-08T16:22:05.012Z,2.66
2023-12-08T16:24:32.686Z,2.64
2023-12-08T16:27:00.024Z,2.60
2023-12-08T16:29:27.291Z,2.54
2023-12-08T16:31:57.300Z,2.52
2023-12-08T16:34:26.084Z,2.56
2023-12-08T16:36:53.594Z,2.52
2023-12-08T16:39:23.319Z,2.48
2023-12-08T16:46:29.246Z,2.43
2023-12-08T16:51:56.122Z,2.34
2023-12-08T16:54:28.366Z,2.34
2023-12-08T17:00:47.249Z,2.37
2023-12-08T17:15:07.611Z,2.41
2023-12-08T17:17:35.092Z,2.35
2023-12-08T17:20:15.639Z,2.33
2023-12-08T17:22:57.469Z,2.35
2023-12-08T17:25:25.115Z,2.36
2023-12-08T17:27:52.985Z,2.40
2023-12-08T17:30:20.375Z,2.47
2023-12-08T17:32:47.792Z,2.39
2023-12-08T17:35:15.480Z,2.38
2023-12-08T17:37:42.721Z,2.41
2023-12-08T17:40:13.738Z,2.42
2023-12-08T17:42:41.218Z,2.41
2023-12-08T17:45:09.180Z,2.46
2023-12-08T17:47:36.341Z,2.50
2023-12-08T17:50:03.983Z,2.38
2023-12-08T17:52:42.153Z,2.37
2023-12-08T17:55:10.287Z,2.37
2023-12-08T17:57:42.008Z,2.48
2023-12-08T18:00:12.879Z,2.53
2023-12-08T18:02:42.981Z,2.43
2023-12-08T18:05:12.198Z,2.41
2023-12-08T18:07:43.886Z,2.38
2023-12-08T18:10:14.722Z,2.37
2023-12-08T18:12:42.785Z,2.36
2023-12-08T18:15:13.893Z,2.33
2023-12-08T18:17:50.069Z,2.30
2023-12-08T18:20:19.379Z,2.25
2023-12-08T18:22:50.125Z,2.30
2023-12-08T18:25:17.652Z,2.30
2023-12-08T18:28:00.906Z,2.28
2023-12-08T18:30:38.243Z,2.27
2023-12-08T18:33:06.647Z,2.27
2023-12-08T18:35:35.492Z,2.30
2023-12-08T18:38:02.877Z,2.33
2023-12-08T18:40:31.694Z,2.35
2023-12-08T18:43:11.343Z,2.35
2023-12-08T18:45:42.007Z,2.30
2023-12-08T18:48:10.172Z,2.30
2023-12-08T18:50:40.308Z,2.34
2023-12-08T18:53:10.351Z,2.29
2023-12-08T18:55:37.854Z,2.31
2023-12-08T18:58:08.341Z,2.30
2023-12-08T19:00:35.358Z,2.31
2023-12-08T19:03:03.578Z,2.29
2023-12-08T19:05:43.403Z,2.30
2023-12-08T19:08:11.129Z,2.31
2023-12-08T19:10:39.624Z,2.32
2023-12-08T19:13:06.883Z,2.30
2023-12-08T19:15:34.568Z,2.30
2023-12-08T19:18:07.619Z,2.36
2023-12-08T19:20:35.169Z,2.33
2023-12-08T19:23:11.990Z,2.35
2023-12-08T19:25:49.997Z,2.33
2023-12-08T19:28:17.084Z,2.43
2023-12-08T19:30:47.496Z,2.36
2023-12-08T19:33:15.423Z,2.36
2023-12-08T19:35:42.699Z,2.39
2023-12-08T19:38:10.795Z,2.32
2023-12-08T19:40:38.247Z,2.34
2023-12-08T19:43:05.867Z,2.32
2023-12-08T19:45:36.337Z,2.40
2023-12-08T19:48:10.606Z,2.40
2023-12-08T19:51:05.595Z,2.39
2023-12-08T19:53:49.008Z,2.45
2023-12-08T19:56:24.449Z,2.45
2023-12-08T19:58:51.727Z,2.41
2023-12-08T20:01:25.127Z,2.46
2023-12-08T20:04:09.551Z,2.52
2023-12-08T20:07:00.019Z,2.44
2023-12-08T20:09:28.033Z,2.41
2023-12-08T20:11:54.913Z,2.48
2023-12-08T20:14:22.121Z,2.39
2023-12-08T20:16:55.729Z,2.35
2023-12-08T20:19:22.750Z,2.40
2023-12-08T20:21:53.563Z,2.49
2023-12-08T20:24:23.627Z,2.44
2023-12-08T20:26:50.706Z,2.41
2023-12-08T20:29:23.688Z,2.43
2023-12-08T20:31:53.619Z,2.41
2023-12-08T20:34:27.242Z,2.41
2023-12-08T20:36:55.171Z,2.39
2023-12-08T20:39:22.318Z,2.38
2023-12-08T20:41:49.900Z,2.38
2023-12-08T20:44:18.577Z,2.42
2023-12-08T20:46:45.959Z,2.35
2023-12-08T20:49:13.018Z,2.39
2023-12-08T20:51:40.298Z,2.36
2023-12-08T20:54:07.188Z,2.43
2023-12-08T20:56:37.733Z,2.44
2023-12-08T20:59:08.746Z,2.40
2023-12-08T21:01:36.041Z,2.35
2023-12-08T21:04:03.248Z,2.43
2023-12-08T21:06:33.447Z,2.42
2023-12-08T21:09:00.773Z,2.31
2023-12-08T21:11:27.853Z,2.35
2023-12-08T21:13:55.050Z,2.35
2023-12-08T21:16:24.267Z,2.30
2023-12-08T21:18:51.501Z,2.33
2023-12-08T21:21:19.195Z,2.39
2023-12-08T21:23:48.788Z,2.33
2023-12-08T21:26:15.772Z,2.38
2023-12-08T21:28:45.047Z,2.40
2023-12-08T21:31:12.048Z,2.40
2023-12-08T21:33:39.367Z,2.37
2023-12-08T21:36:08.275Z,2.29
2023-12-08T21:38:35.488Z,2.24
2023-12-08T21:41:02.402Z,2.13
2023-12-08T21:43:29.358Z,2.16
2023-12-08T21:45:56.339Z,2.08
2023-12-08T21:48:23.294Z,2.00
2023-12-08T21:50:50.383Z,1.85
2023-12-08T21:53:17.650Z,1.74
2023-12-08T21:55:44.615Z,1.72
2023-12-08T21:58:11.578Z,1.75
2023-12-08T22:00:40.498Z,1.74
2023-12-08T22:03:07.738Z,1.67
2023-12-08T22:05:34.763Z,1.75
2023-12-08T22:08:02.152Z,1.83
2023-12-08T22:10:34.720Z,1.87
2023-12-08T22:13:04.737Z,1.79
2023-12-08T22:15:33.848Z,1.73
2023-12-08T22:18:00.963Z,1.79
2023-12-08T22:20:28.653Z,1.91
2023-12-08T22:22:55.874Z,1.96
2023-12-08T22:25:22.884Z,1.93
2023-12-08T22:27:49.883Z,1.93
2023-12-08T22:30:16.949Z,1.95
2023-12-08T22:32:46.889Z,1.99
2023-12-08T22:35:13.848Z,2.05
2023-12-08T22:37:40.965Z,2.00
2023-12-08T22:40:08.463Z,1.99
2023-12-08T22:42:35.405Z,1.98
2023-12-08T22:45:02.543Z,1.96
2023-12-08T22:47:29.769Z,1.93
2023-12-08T22:49:59.205Z,1.92
2023-12-08T22:52:35.808Z,1.92
2023-12-08T22:55:05.208Z,1.98
2023-12-08T22:57:32.051Z,1.99
2023-12-08T23:00:02.847Z,1.91
2023-12-08T23:02:30.328Z,1.98
2023-12-08T23:04:57.378Z,1.96
2023-12-08T23:07:24.332Z,2.01
2023-12-08T23:09:51.535Z,1.99
2023-12-08T23:12:18.786Z,2.03
2023-12-08T23:14:45.965Z,2.01
2023-12-08T23:17:13.248Z,2.05
2023-12-08T23:19:44.130Z,1.99
2023-12-08T23:22:14.439Z,2.08
2023-12-08T23:24:41.584Z,2.07
2023-12-08T23:27:08.606Z,1.98
2023-12-08T23:29:35.631Z,2.06
2023-12-08T23:32:02.648Z,2.03
2023-12-08T23:34:29.926Z,2.01
2023-12-08T23:36:57.102Z,1.97
2023-12-08T23:39:24.388Z,1.93
2023-12-08T23:41:52.202Z,2.01
2023-12-08T23:44:25.335Z,2.02
2023-12-08T23:46:52.652Z,2.03
2023-12-08T23:49:23.941Z,2.04
2023-12-08T23:51:51.476Z,2.04
2023-12-08T23:54:21.549Z,2.03
2023-12-08T23:56:51.912Z,2.08
2023-12-08T23:59:19.160Z,2.04
